Time;durP1;ratioP1;P1;durP2;ratioP2;P2;SDS_P1;SDS_P2;PMS_P1;PMS_P2;Temp;Humidity;BMP_temperature;BMP_pressure;BME280_temperature;BME280_humidity;BME280_pressure;Samples;Min_cycle;Max_cycle;Signal;HPM_P1;HPM_P2
2022/07/13 00:01:33;;;;;;;1.65;1.52;;;23.20;67.90;;;;;;5008746;28;20041;-63
2022/07/13 00:03:59;;;;;;;1.52;1.42;;;23.20;67.80;;;;;;5029011;28;20033;-63
2022/07/13 00:06:25;;;;;;;1.80;1.33;;;23.20;67.80;;;;;;5031023;28;20099;-63
2022/07/13 00:08:50;;;;;;;1.42;1.20;;;23.20;67.70;;;;;;5028303;28;20939;-62
2022/07/13 00:11:16;;;;;;;2.70;1.50;;;23.20;67.80;;;;;;5030642;28;20708;-63
2022/07/13 00:13:42;;;;;;;1.80;1.70;;;23.20;67.70;;;;;;5008376;28;20089;-63
2022/07/13 00:16:07;;;;;;;2.00;1.48;;;23.20;67.70;;;;;;5028131;28;20037;-63
2022/07/13 00:18:33;;;;;;;1.88;1.60;;;23.20;67.60;;;;;;5011782;28;20032;-63
2022/07/13 00:20:58;;;;;;;1.60;1.45;;;23.20;67.60;;;;;;5026612;28;20037;-63
2022/07/13 00:23:24;;;;;;;2.35;1.65;;;23.20;67.60;;;;;;5026314;28;20550;-63
2022/07/13 00:25:50;;;;;;;1.45;1.20;;;23.20;67.60;;;;;;5028256;28;20397;-63
2022/07/13 00:28:16;;;;;;;1.77;1.40;;;23.20;67.50;;;;;;5028909;28;20037;-63
2022/07/13 00:30:41;;;;;;;1.65;1.55;;;23.20;67.40;;;;;;5029343;28;20033;-62
2022/07/13 00:33:07;;;;;;;1.60;1.50;;;23.20;67.40;;;;;;5013149;28;20047;-63
2022/07/13 00:35:33;;;;;;;2.05;1.90;;;23.20;67.40;;;;;;5027311;28;20892;-62
2022/07/13 00:37:59;;;;;;;1.60;1.45;;;23.20;68.10;;;;;;5028832;28;20041;-62
2022/07/13 00:40:25;;;;;;;1.50;1.40;;;23.20;67.30;;;;;;5030309;28;20100;-63
2022/07/13 00:42:51;;;;;;;1.50;1.40;;;23.20;67.30;;;;;;5028618;28;20582;-62
2022/07/13 00:45:16;;;;;;;1.80;1.63;;;23.20;67.20;;;;;;5030355;28;20065;-62
2022/07/13 00:47:44;;;;;;;1.45;1.35;;;23.20;67.30;;;;;;5028305;28;20595;-62
2022/07/13 00:50:10;;;;;;;2.30;2.08;;;23.20;67.10;;;;;;5022152;28;20088;-63
2022/07/13 00:52:37;;;;;;;1.60;1.50;;;23.20;67.10;;;;;;5009837;28;20120;-64
2022/07/13 00:55:05;;;;;;;1.70;1.60;;;23.20;67.10;;;;;;5027571;28;20488;-62
2022/07/13 00:57:34;;;;;;;1.83;1.73;;;23.20;67.00;;;;;;5028525;28;20045;-62
2022/07/13 01:00:03;;;;;;;1.77;1.67;;;23.20;67.00;;;;;;5029231;28;20047;-62
2022/07/13 01:02:28;;;;;;;2.35;1.65;;;23.20;67.00;;;;;;5028511;28;20043;-63
2022/07/13 01:04:54;;;;;;;2.47;1.60;;;23.20;67.00;;;;;;5009065;28;20489;-62
2022/07/13 01:07:20;;;;;;;1.92;1.80;;;23.10;66.90;;;;;;5009054;28;20120;-62
2022/07/13 01:09:45;;;;;;;2.13;1.88;;;23.20;66.90;;;;;;5029319;28;20485;-62
2022/07/13 01:12:11;;;;;;;2.08;1.77;;;23.10;66.80;;;;;;5025818;28;20616;-63
2022/07/13 01:14:38;;;;;;;1.90;1.80;;;23.20;66.90;;;;;;5027488;28;20045;-62
2022/07/13 01:17:03;;;;;;;1.95;1.85;;;23.10;66.70;;;;;;5026904;28;20163;-62
2022/07/13 01:19:31;;;;;;;2.47;1.88;;;23.20;66.80;;;;;;5026781;28;20473;-62
2022/07/13 01:22:01;;;;;;;2.97;1.95;;;23.20;66.70;;;;;;5009932;28;20124;-62
2022/07/13 01:24:30;;;;;;;1.85;1.70;;;23.10;66.70;;;;;;5028210;28;20890;-63
2022/07/13 01:26:58;;;;;;;1.77;1.67;;;23.20;66.70;;;;;;5028942;28;20029;-62
2022/07/13 01:29:24;;;;;;;1.70;1.60;;;23.20;66.70;;;;;;5026979;28;20029;-62
2022/07/13 01:31:49;;;;;;;1.92;1.83;;;23.20;66.70;;;;;;5030050;28;20115;-62
2022/07/13 01:34:16;;;;;;;2.08;1.77;;;23.20;66.60;;;;;;5007478;28;20124;-62
2022/07/13 01:36:42;;;;;;;1.60;1.50;;;23.20;66.60;;;;;;5029046;28;20488;-62
2022/07/13 01:39:08;;;;;;;1.80;1.70;;;23.20;66.60;;;;;;5028345;28;20046;-62
2022/07/13 01:41:33;;;;;;;2.00;1.80;;;23.20;66.50;;;;;;5025879;28;20151;-63
2022/07/13 01:44:00;;;;;;;2.63;1.65;;;23.20;66.50;;;;;;5027435;28;20477;-63
2022/07/13 01:46:27;;;;;;;2.08;1.98;;;23.20;66.50;;;;;;5027651;28;20463;-62
2022/07/13 01:48:54;;;;;;;2.00;1.90;;;23.10;66.40;;;;;;5029502;28;20037;-62
2022/07/13 01:51:20;;;;;;;2.03;1.88;;;23.10;66.30;;;;;;5027853;28;20071;-63
2022/07/13 01:53:46;;;;;;;1.90;1.80;;;23.20;66.40;;;;;;5029455;28;20924;-63
2022/07/13 01:56:12;;;;;;;2.05;1.88;;;23.10;66.30;;;;;;5008554;28;20047;-62
2022/07/13 01:58:38;;;;;;;2.10;1.90;;;23.20;66.30;;;;;;5011025;28;20391;-63
2022/07/13 02:01:04;;;;;;;2.10;1.90;;;23.10;66.20;;;;;;5023634;28;20036;-62
2022/07/13 02:03:31;;;;;;;1.98;1.88;;;23.10;66.20;;;;;;5029170;28;20048;-62
2022/07/13 02:05:58;;;;;;;2.13;1.88;;;23.10;66.20;;;;;;5025162;28;20087;-62
2022/07/13 02:08:25;;;;;;;3.88;2.03;;;23.10;66.10;;;;;;5012820;28;20041;-62
2022/07/13 02:10:50;;;;;;;2.53;2.35;;;23.10;66.10;;;;;;5026284;28;20144;-62
2022/07/13 02:13:16;;;;;;;2.42;2.28;;;23.10;66.10;;;;;;5025733;28;20628;-63
2022/07/13 02:15:43;;;;;;;1.95;1.75;;;23.10;66.10;;;;;;5008987;28;20933;-63
2022/07/13 02:18:09;;;;;;;2.42;2.10;;;23.10;66.00;;;;;;5026849;28;20484;-63
2022/07/13 02:20:35;;;;;;;1.92;1.83;;;23.10;66.00;;;;;;5029012;28;20064;-62
2022/07/13 02:23:01;;;;;;;2.10;2.00;;;23.10;66.00;;;;;;5011474;28;20041;-62
2022/07/13 02:25:26;;;;;;;2.28;2.00;;;23.10;65.90;;;;;;5027138;28;20034;-63
2022/07/13 02:27:52;;;;;;;2.00;1.90;;;23.10;65.90;;;;;;5029644;28;20363;-62
2022/07/13 02:30:18;;;;;;;2.00;1.80;;;23.10;65.90;;;;;;5027352;28;20856;-62
2022/07/13 02:32:45;;;;;;;2.13;2.03;;;23.10;65.90;;;;;;5027024;28;20041;-63
2022/07/13 02:35:12;;;;;;;2.13;1.92;;;23.10;65.80;;;;;;5028164;28;20042;-63
2022/07/13 02:37:39;;;;;;;2.00;1.90;;;23.10;65.80;;;;;;5024864;28;20085;-62
2022/07/13 02:40:07;;;;;;;2.28;2.08;;;23.10;65.80;;;;;;5007769;28;20064;-62
2022/07/13 02:42:33;;;;;;;2.20;2.00;;;23.10;65.80;;;;;;5026681;28;20065;-63
2022/07/13 02:44:59;;;;;;;2.30;2.10;;;23.10;66.40;;;;;;5006309;28;21808;-63
2022/07/13 02:47:24;;;;;;;2.28;2.08;;;23.10;65.70;;;;;;5009191;28;20053;-62
2022/07/13 02:49:50;;;;;;;2.17;2.08;;;23.10;65.70;;;;;;5008854;28;20046;-63
2022/07/13 02:52:16;;;;;;;2.97;2.30;;;23.10;65.70;;;;;;5030043;28;20033;-62
2022/07/13 02:54:42;;;;;;;2.55;2.35;;;23.10;65.60;;;;;;5029063;28;20054;-62
2022/07/13 02:57:08;;;;;;;2.33;2.13;;;23.10;65.60;;;;;;5031003;28;20053;-63
2022/07/13 02:59:37;;;;;;;2.03;1.92;;;23.10;65.60;;;;;;5030513;28;20608;-63
2022/07/13 03:02:04;;;;;;;2.47;2.28;;;23.10;65.60;;;;;;5010016;28;20037;-63
2022/07/13 03:04:31;;;;;;;2.33;2.20;;;23.10;65.60;;;;;;5010458;28;20071;-62
2022/07/13 03:06:56;;;;;;;2.10;2.00;;;23.10;65.70;;;;;;5030935;28;20065;-63
2022/07/13 03:09:22;;;;;;;2.22;2.13;;;23.10;65.50;;;;;;5029356;28;20069;-62
2022/07/13 03:11:48;;;;;;;2.42;2.22;;;23.10;65.50;;;;;;5029074;28;20049;-62
2022/07/13 03:14:13;;;;;;;2.45;2.25;;;23.10;65.50;;;;;;5030171;28;20473;-63
2022/07/13 03:16:39;;;;;;;3.00;2.70;;;23.10;65.50;;;;;;5027967;28;20453;-63
2022/07/13 03:19:05;;;;;;;2.42;2.22;;;23.10;65.50;;;;;;5029894;28;21145;-62
2022/07/13 03:21:30;;;;;;;2.70;2.50;;;23.10;65.50;;;;;;5030969;28;20098;-63
2022/07/13 03:23:56;;;;;;;2.75;2.55;;;23.10;65.50;;;;;;5028413;28;20828;-63
2022/07/13 03:26:23;;;;;;;2.30;2.20;;;23.10;65.40;;;;;;5029730;28;20659;-63
2022/07/13 03:28:49;;;;;;;2.88;2.00;;;23.10;65.40;;;;;;5031551;28;20055;-63
2022/07/13 03:31:14;;;;;;;2.55;2.38;;;23.10;65.40;;;;;;5029086;28;20517;-63
2022/07/13 03:33:40;;;;;;;2.30;2.20;;;23.10;65.40;;;;;;5029359;28;20040;-62
2022/07/13 03:36:07;;;;;;;2.50;2.33;;;23.10;65.40;;;;;;5013517;28;20049;-62
2022/07/13 03:38:33;;;;;;;2.10;2.00;;;23.10;65.40;;;;;;5027710;28;20077;-62
2022/07/13 03:40:59;;;;;;;2.05;1.95;;;23.10;65.40;;;;;;5030714;28;20034;-63
2022/07/13 03:43:25;;;;;;;2.33;2.10;;;23.10;65.30;;;;;;5029199;28;20038;-62
2022/07/13 03:45:51;;;;;;;3.25;2.65;;;23.10;65.40;;;;;;5030244;28;20045;-62
2022/07/13 03:48:17;;;;;;;2.35;2.15;;;23.10;65.30;;;;;;5009037;28;20500;-62
2022/07/13 03:50:47;;;;;;;2.50;2.30;;;23.10;65.30;;;;;;5029342;28;20982;-62
2022/07/13 03:53:13;;;;;;;2.60;2.40;;;23.10;65.20;;;;;;5029259;28;20046;-62
2022/07/13 03:55:39;;;;;;;2.30;2.20;;;23.10;65.30;;;;;;5008945;28;20040;-62
2022/07/13 03:58:05;;;;;;;2.70;2.50;;;23.10;65.20;;;;;;5010940;28;20068;-63
2022/07/13 04:00:31;;;;;;;2.50;2.30;;;23.10;65.20;;;;;;5030479;28;20037;-63
2022/07/13 04:02:57;;;;;;;3.15;2.60;;;23.10;65.20;;;;;;5006398;28;20083;-63
2022/07/13 04:05:24;;;;;;;2.47;2.33;;;23.10;65.20;;;;;;5028458;28;20117;-63
2022/07/13 04:07:49;;;;;;;3.15;2.28;;;23.10;65.20;;;;;;5028922;28;20037;-63
2022/07/13 04:10:18;;;;;;;2.30;2.20;;;23.10;65.10;;;;;;5025865;28;20039;-62
2022/07/13 04:12:44;;;;;;;2.90;2.35;;;23.10;65.20;;;;;;5031657;28;20045;-63
2022/07/13 04:15:10;;;;;;;2.53;2.42;;;23.10;65.10;;;;;;4994991;28;20050;-63
2022/07/13 04:17:36;;;;;;;2.55;2.35;;;23.10;65.10;;;;;;5029406;28;20553;-62
2022/07/13 04:20:02;;;;;;;2.30;2.20;;;23.10;65.10;;;;;;5029053;28;20125;-63
2022/07/13 04:22:28;;;;;;;2.60;2.40;;;23.10;65.10;;;;;;5033542;28;20052;-63
2022/07/13 04:24:54;;;;;;;2.53;2.20;;;23.10;65.10;;;;;;5029136;28;20451;-62
2022/07/13 04:27:19;;;;;;;2.25;2.05;;;23.10;65.00;;;;;;5029230;28;20045;-63
2022/07/13 04:29:45;;;;;;;2.40;2.22;;;23.10;65.00;;;;;;5011133;28;20042;-62
2022/07/13 04:32:11;;;;;;;2.42;2.22;;;23.10;65.00;;;;;;5025431;28;20555;-63
2022/07/13 04:34:36;;;;;;;2.42;2.22;;;23.10;65.10;;;;;;5023607;28;20041;-63
2022/07/13 04:37:02;;;;;;;2.60;2.40;;;23.10;65.20;;;;;;5005978;28;20041;-65
2022/07/13 04:39:28;;;;;;;2.20;2.10;;;23.10;65.20;;;;;;5028305;28;20068;-64
2022/07/13 04:41:53;;;;;;;2.33;2.15;;;23.10;65.30;;;;;;5027064;28;20187;-62
2022/07/13 04:44:19;;;;;;;3.30;2.20;;;23.10;65.20;;;;;;5026723;28;20594;-62
2022/07/13 04:46:46;;;;;;;1.92;1.83;;;23.10;65.30;;;;;;5024328;28;20072;-62
2022/07/13 04:49:11;;;;;;;2.40;2.20;;;23.10;65.20;;;;;;5023808;28;20168;-63
2022/07/13 04:51:37;;;;;;;2.50;2.30;;;23.10;65.20;;;;;;5006191;28;20494;-62
2022/07/13 04:54:03;;;;;;;1.98;1.88;;;23.10;65.10;;;;;;5006646;28;20537;-63
2022/07/13 04:56:28;;;;;;;2.00;1.90;;;23.10;65.10;;;;;;5026661;28;20489;-62
2022/07/13 04:58:54;;;;;;;1.92;1.83;;;23.10;65.10;;;;;;5026848;28;20036;-62
2022/07/13 05:01:20;;;;;;;2.40;2.20;;;23.10;65.10;;;;;;5026401;28;20029;-63
2022/07/13 05:03:45;;;;;;;2.13;1.85;;;23.10;65.70;;;;;;5025167;28;20072;-61
2022/07/13 05:06:13;;;;;;;2.10;1.88;;;23.10;65.10;;;;;;5031504;28;20143;-62
2022/07/13 05:08:39;;;;;;;2.28;2.17;;;23.10;65.00;;;;;;5029096;28;20083;-63
2022/07/13 05:11:05;;;;;;;1.90;1.80;;;23.10;65.00;;;;;;4976020;28;20116;-63
2022/07/13 05:13:31;;;;;;;2.05;1.77;;;23.10;65.00;;;;;;5029709;28;20509;-62
2022/07/13 05:15:57;;;;;;;2.22;2.13;;;23.10;65.00;;;;;;5031157;28;20041;-62
2022/07/13 05:18:22;;;;;;;2.97;2.17;;;23.10;64.90;;;;;;5027318;28;20508;-62
2022/07/13 05:20:48;;;;;;;3.25;2.17;;;23.10;65.00;;;;;;5027647;28;20099;-62
2022/07/13 05:23:14;;;;;;;2.00;1.90;;;23.10;65.00;;;;;;5028292;28;20041;-62
2022/07/13 05:25:39;;;;;;;1.95;1.85;;;23.10;65.00;;;;;;5024988;28;21919;-63
2022/07/13 05:28:05;;;;;;;2.10;2.00;;;23.10;64.90;;;;;;5027796;28;20545;-62
2022/07/13 05:30:31;;;;;;;2.25;2.00;;;23.10;64.90;;;;;;5007734;28;20037;-62
2022/07/13 05:32:56;;;;;;;2.28;1.98;;;23.10;64.90;;;;;;5027451;28;20139;-62
2022/07/13 05:35:22;;;;;;;2.78;1.73;;;23.10;64.90;;;;;;5029700;28;20042;-63
2022/07/13 05:37:48;;;;;;;1.90;1.80;;;23.10;64.90;;;;;;5027712;28;20481;-62
2022/07/13 05:40:14;;;;;;;2.22;2.00;;;23.10;64.90;;;;;;5009754;28;20046;-62
2022/07/13 05:42:40;;;;;;;3.17;2.17;;;23.10;65.10;;;;;;5027586;28;20033;-62
2022/07/13 05:45:06;;;;;;;2.58;2.10;;;23.10;65.30;;;;;;5029082;28;20060;-62
2022/07/13 05:47:31;;;;;;;2.85;1.88;;;23.10;65.40;;;;;;5027046;28;20092;-62
2022/07/13 05:49:57;;;;;;;3.13;2.30;;;23.10;65.50;;;;;;5026688;28;20069;-62
2022/07/13 05:52:24;;;;;;;4.18;2.13;;;23.10;65.60;;;;;;5030557;28;20067;-62
2022/07/13 05:54:50;;;;;;;2.38;2.15;;;23.10;65.70;;;;;;5027748;28;20060;-62
2022/07/13 05:57:16;;;;;;;2.30;2.10;;;23.10;66.40;;;;;;5025868;28;20612;-62
2022/07/13 05:59:41;;;;;;;2.42;2.08;;;23.10;65.70;;;;;;5028417;28;20044;-62
2022/07/13 06:02:07;;;;;;;4.32;1.88;;;23.10;65.70;;;;;;5027544;28;20506;-62
2022/07/13 06:04:32;;;;;;;3.08;2.05;;;23.10;65.60;;;;;;5027889;28;21216;-62
2022/07/13 06:06:58;;;;;;;2.58;2.38;;;23.10;65.60;;;;;;5029840;28;20041;-62
2022/07/13 06:09:24;;;;;;;5.18;2.55;;;23.10;65.60;;;;;;5027513;28;20080;-62
2022/07/13 06:11:50;;;;;;;2.92;2.42;;;23.10;65.60;;;;;;5027094;28;20037;-62
2022/07/13 06:14:15;;;;;;;2.45;2.13;;;23.10;65.50;;;;;;5031273;28;20041;-62
2022/07/13 06:16:41;;;;;;;4.85;2.53;;;23.10;65.50;;;;;;5026498;28;20040;-63
2022/07/13 06:19:07;;;;;;;2.67;2.30;;;23.10;65.40;;;;;;5027919;28;20037;-62
2022/07/13 06:21:33;;;;;;;3.17;2.85;;;23.10;65.30;;;;;;5028659;28;20041;-62
2022/07/13 06:23:58;;;;;;;3.08;2.75;;;23.10;65.20;;;;;;5028952;28;20482;-62
2022/07/13 06:26:24;;;;;;;2.97;2.78;;;23.10;65.10;;;;;;5029099;28;20486;-62
2022/07/13 06:28:50;;;;;;;3.90;2.50;;;23.10;65.60;;;;;;5030739;28;20083;-63
2022/07/13 06:31:16;;;;;;;2.47;2.28;;;23.10;64.80;;;;;;5032387;28;20738;-62
2022/07/13 06:33:41;;;;;;;9.23;3.15;;;23.10;64.60;;;;;;5010592;28;20069;-63
2022/07/13 06:36:08;;;;;;;3.80;2.70;;;23.10;64.40;;;;;;5031877;28;20613;-62
2022/07/13 06:38:34;;;;;;;2.80;2.60;;;23.10;64.40;;;;;;5032714;28;20034;-62
2022/07/13 06:40:59;;;;;;;5.30;3.10;;;23.10;64.20;;;;;;5028804;28;20479;-62
2022/07/13 06:43:25;;;;;;;7.47;3.20;;;23.10;64.10;;;;;;5012297;28;20046;-63
2022/07/13 06:45:51;;;;;;;4.03;2.85;;;23.10;64.00;;;;;;5012458;28;20730;-62
2022/07/13 06:48:17;;;;;;;4.65;2.95;;;23.10;63.80;;;;;;5028577;28;21087;-62
2022/07/13 06:50:42;;;;;;;4.55;2.83;;;23.20;63.70;;;;;;5010708;28;20057;-62
2022/07/13 06:53:09;;;;;;;3.85;2.80;;;23.20;63.70;;;;;;5028241;28;20087;-62
2022/07/13 06:55:35;;;;;;;4.07;2.63;;;23.20;63.60;;;;;;5030258;28;20052;-63
2022/07/13 06:58:02;;;;;;;3.70;3.03;;;23.10;63.40;;;;;;5008101;28;20063;-64
2022/07/13 07:00:28;;;;;;;3.67;2.90;;;23.20;63.50;;;;;;5028826;28;20068;-64
2022/07/13 07:02:53;;;;;;;3.92;2.78;;;23.20;63.50;;;;;;4998704;28;20045;-64
2022/07/13 07:05:19;;;;;;;3.95;2.60;;;23.20;63.70;;;;;;5025902;28;20125;-60
2022/07/13 07:07:44;;;;;;;3.20;2.53;;;23.20;63.60;;;;;;5027726;28;20175;-60
2022/07/13 07:10:11;;;;;;;2.60;2.40;;;23.20;63.60;;;;;;5027742;28;20474;-62
2022/07/13 07:12:37;;;;;;;2.72;2.53;;;23.20;63.60;;;;;;5011356;28;20037;-61
2022/07/13 07:15:03;;;;;;;3.30;2.40;;;23.20;63.70;;;;;;5011112;28;20045;-61
2022/07/13 07:17:29;;;;;;;2.92;2.70;;;23.20;63.80;;;;;;5031493;28;20634;-62
2022/07/13 07:20:04;;;;;;;4.25;3.30;;;23.20;63.90;;;;;;5030604;28;20080;-63
2022/07/13 07:22:29;;;;;;;5.10;3.30;;;23.20;63.90;;;;;;5008160;28;20067;-62
2022/07/13 07:24:56;;;;;;;4.72;3.13;;;23.20;64.00;;;;;;5009692;28;20559;-64
2022/07/13 07:27:22;;;;;;;4.57;3.53;;;23.20;64.20;;;;;;5008681;28;20557;-63
2022/07/13 07:29:48;;;;;;;3.58;3.08;;;23.20;64.30;;;;;;5029436;28;20037;-63
2022/07/13 07:32:14;;;;;;;5.18;3.20;;;23.20;64.30;;;;;;5029817;28;20044;-62
2022/07/13 07:34:39;;;;;;;5.70;3.38;;;23.30;64.40;;;;;;5029997;28;20060;-60
2022/07/13 07:37:05;;;;;;;8.02;3.67;;;23.30;64.40;;;;;;5030603;28;20503;-63
2022/07/13 07:39:31;;;;;;;6.20;3.83;;;23.30;64.50;;;;;;5029055;28;20032;-61
2022/07/13 07:41:56;;;;;;;4.85;3.80;;;23.30;64.60;;;;;;5028244;28;20045;-61
2022/07/13 07:44:22;;;;;;;4.68;4.28;;;23.30;64.50;;;;;;5029061;28;20056;-60
2022/07/13 07:46:48;;;;;;;4.95;4.55;;;23.30;64.50;;;;;;5031213;28;20052;-61
2022/07/13 07:49:15;;;;;;;7.07;5.90;;;23.30;64.70;;;;;;5027922;28;20068;-60
2022/07/13 07:51:41;;;;;;;6.15;5.28;;;23.30;64.70;;;;;;5030333;28;20047;-61
2022/07/13 07:54:06;;;;;;;6.63;5.25;;;23.30;65.00;;;;;;5032042;28;20045;-61
2022/07/13 07:56:32;;;;;;;8.80;6.38;;;23.30;65.30;;;;;;5027994;28;20116;-62
2022/07/13 07:58:58;;;;;;;6.97;5.85;;;23.30;65.40;;;;;;5028172;28;21723;-61
2022/07/13 08:01:23;;;;;;;7.18;5.65;;;23.40;65.50;;;;;;5028176;28;20033;-61
2022/07/13 08:03:49;;;;;;;7.63;6.25;;;23.40;65.50;;;;;;5027471;28;20701;-61
2022/07/13 08:06:16;;;;;;;6.38;5.78;;;23.40;65.40;;;;;;5029459;28;20048;-61
2022/07/13 08:08:42;;;;;;;9.32;6.13;;;23.30;65.40;;;;;;5029537;28;20112;-62
2022/07/13 08:11:09;;;;;;;8.68;6.90;;;23.40;65.50;;;;;;5027812;28;20540;-60
2022/07/13 08:13:35;;;;;;;7.28;6.43;;;23.40;65.70;;;;;;5027432;28;20508;-61
2022/07/13 08:16:02;;;;;;;8.05;6.40;;;23.40;65.90;;;;;;5029229;28;20048;-62
2022/07/13 08:18:28;;;;;;;7.28;6.28;;;23.40;66.10;;;;;;5029360;28;20044;-61
2022/07/13 08:20:54;;;;;;;7.95;5.75;;;23.50;66.10;;;;;;5026359;28;20485;-60
2022/07/13 08:26:04;;;;;;;7.22;6.13;;;23.50;66.30;;;;;;5010633;28;20128;-61
2022/07/13 08:28:29;;;;;;;9.82;7.03;;;23.50;66.30;;;;;;4992779;28;20527;-61
2022/07/13 08:30:55;;;;;;;7.30;6.60;;;23.50;66.40;;;;;;5028328;28;20040;-62
2022/07/13 08:38:34;;;;;;;7.30;6.40;;;23.60;66.60;;;;;;5027101;28;20065;-62
2022/07/13 08:38:51;;;;;;;6.88;6.20;;;23.60;67.00;;;;;;5028582;28;20055;-61
2022/07/13 08:41:16;;;;;;;7.45;6.20;;;23.60;66.80;;;;;;5026532;28;21177;-60
2022/07/13 08:43:42;;;;;;;6.75;6.15;;;23.60;67.50;;;;;;5008592;28;20053;-63
2022/07/13 08:46:08;;;;;;;8.05;6.45;;;23.60;66.80;;;;;;5027542;28;20667;-61
2022/07/13 08:48:38;;;;;;;6.50;5.85;;;23.60;66.90;;;;;;5028435;28;20049;-61
2022/07/13 08:51:06;;;;;;;6.10;5.33;;;23.60;67.20;;;;;;5026165;28;20057;-61
2022/07/13 08:53:31;;;;;;;7.90;5.60;;;23.60;67.30;;;;;;5029242;28;20067;-61
2022/07/13 08:55:57;;;;;;;8.02;5.40;;;23.60;67.50;;;;;;5010559;28;20965;-63
2022/07/13 08:58:23;;;;;;;8.23;6.00;;;23.60;67.60;;;;;;5028385;28;20536;-59
2022/07/13 09:00:49;;;;;;;6.10;5.50;;;23.60;67.60;;;;;;5028023;28;20504;-59
2022/07/13 09:03:15;;;;;;;7.75;6.00;;;23.60;67.60;;;;;;5027732;28;20094;-61
2022/07/13 09:05:42;;;;;;;6.68;6.00;;;23.60;67.50;;;;;;5008395;28;20432;-61
2022/07/13 09:08:10;;;;;;;6.97;6.30;;;23.70;67.40;;;;;;5029515;28;20481;-61
2022/07/13 09:10:57;;;;;;;6.10;5.53;;;23.70;67.20;;;;;;5026661;28;20061;-61
2022/07/13 09:13:42;;;;;;;5.93;5.32;;;23.70;67.00;;;;;;5004171;28;20136;-61
2022/07/13 09:16:24;;;;;;;6.97;5.25;;;23.60;67.00;;;;;;5027610;28;20037;-61
2022/07/13 09:18:55;;;;;;;6.53;4.97;;;23.70;66.40;;;;;;5025937;28;20045;-61
2022/07/13 09:21:23;;;;;;;7.13;5.40;;;23.60;66.40;;;;;;5027773;28;20127;-60
2022/07/13 09:23:57;;;;;;;5.68;4.45;;;23.70;66.20;;;;;;5022766;28;20112;-60
2022/07/13 09:26:23;;;;;;;6.78;5.00;;;23.70;66.00;;;;;;5025624;28;20037;-63
2022/07/13 09:28:51;;;;;;;8.98;5.10;;;23.70;66.00;;;;;;5027559;28;20410;-61
2022/07/13 09:31:18;;;;;;;6.68;5.43;;;23.70;65.70;;;;;;5027291;28;20385;-60
2022/07/13 09:33:46;;;;;;;7.30;5.22;;;23.70;65.90;;;;;;4994210;28;20080;-60
2022/07/13 09:36:14;;;;;;;5.00;4.60;;;23.70;65.80;;;;;;5027671;28;20068;-61
2022/07/13 09:38:44;;;;;;;7.95;5.13;;;23.70;65.90;;;;;;5030478;28;20033;-61
2022/07/13 09:41:17;;;;;;;6.13;4.72;;;23.70;65.80;;;;;;5027117;28;20072;-60
2022/07/13 09:46:51;;;;;;;4.68;4.15;;;23.70;66.00;;;;;;5026441;28;20049;-61
2022/07/13 09:49:18;;;;;;;7.57;4.65;;;23.70;66.00;;;;;;5027918;28;20049;-62
2022/07/13 09:51:45;;;;;;;6.97;4.25;;;23.70;66.00;;;;;;5028907;28;20041;-61
2022/07/13 09:54:12;;;;;;;5.35;4.70;;;23.70;66.30;;;;;;5009167;28;20063;-61
2022/07/13 09:56:47;;;;;;;4.88;4.47;;;23.70;66.40;;;;;;5007541;28;20091;-60
2022/07/13 09:59:15;;;;;;;7.25;5.07;;;23.70;66.50;;;;;;5025657;28;20103;-60
2022/07/13 10:01:42;;;;;;;5.28;4.78;;;23.70;66.30;;;;;;5015965;28;20053;-60
2022/07/13 10:04:08;;;;;;;5.68;4.53;;;23.70;66.30;;;;;;5012313;28;20493;-60
2022/07/13 10:06:34;;;;;;;5.03;4.53;;;23.70;66.50;;;;;;5031767;28;20036;-63
2022/07/13 10:09:00;;;;;;;7.90;4.60;;;23.80;66.50;;;;;;5034324;28;20096;-61
2022/07/13 10:11:26;;;;;;;5.97;4.40;;;23.70;66.30;;;;;;5011640;28;20045;-60
2022/07/13 10:13:52;;;;;;;5.07;4.28;;;23.80;66.30;;;;;;5010888;28;20481;-62
2022/07/13 10:16:18;;;;;;;5.00;4.00;;;23.80;66.30;;;;;;5015136;28;20056;-60
2022/07/13 10:18:44;;;;;;;4.63;3.95;;;23.80;66.00;;;;;;5033662;28;20033;-60
2022/07/13 10:21:26;;;;;;;4.78;4.25;;;23.80;65.60;;;;;;5013551;28;20045;-60
2022/07/13 10:23:52;;;;;;;5.68;4.45;;;23.80;65.60;;;;;;5032136;28;20083;-62
2022/07/13 10:26:24;;;;;;;5.20;3.80;;;23.80;65.70;;;;;;5028327;28;20128;-61
2022/07/13 10:29:07;;;;;;;5.60;4.40;;;23.80;65.20;;;;;;5032263;28;20459;-62
2022/07/13 10:31:33;;;;;;;5.50;3.72;;;23.80;65.00;;;;;;5028563;28;20044;-61
2022/07/13 10:34:04;;;;;;;6.20;3.97;;;23.80;65.20;;;;;;5030412;28;20051;-60
2022/07/13 10:36:48;;;;;;;6.05;3.85;;;23.80;65.40;;;;;;5027304;28;20069;-60
2022/07/13 10:39:14;;;;;;;4.32;3.85;;;23.80;65.80;;;;;;5010182;28;20049;-62
2022/07/13 10:41:59;;;;;;;6.03;4.15;;;23.80;65.80;;;;;;5030400;28;20468;-61
2022/07/13 10:44:32;;;;;;;4.90;4.05;;;23.70;66.00;;;;;;5011566;28;20049;-61
2022/07/13 10:46:58;;;;;;;6.25;3.92;;;23.70;65.90;;;;;;5031083;28;20140;-61
2022/07/13 10:49:30;;;;;;;7.70;3.75;;;23.70;66.10;;;;;;5031849;28;20140;-62
2022/07/13 10:51:57;;;;;;;5.78;4.05;;;23.70;66.40;;;;;;5003205;28;20111;-62
2022/07/13 10:54:23;;;;;;;4.22;3.83;;;23.70;66.50;;;;;;5030574;28;20038;-61
2022/07/13 10:57:12;;;;;;;4.85;4.45;;;23.70;66.60;;;;;;5029278;28;20342;-61
2022/07/13 10:59:46;;;;;;;5.38;4.05;;;23.70;66.60;;;;;;5027465;28;20034;-61
2022/07/13 11:02:41;;;;;;;4.40;3.95;;;23.70;66.70;;;;;;5031320;28;20060;-64
2022/07/13 11:05:07;;;;;;;5.45;3.60;;;23.70;66.70;;;;;;5018435;28;20052;-61
2022/07/13 11:07:42;;;;;;;5.25;3.33;;;23.70;66.70;;;;;;5030165;28;20037;-61
2022/07/13 11:10:25;;;;;;;6.90;3.78;;;23.70;66.40;;;;;;5028067;28;20041;-62
2022/07/13 11:13:02;;;;;;;4.00;3.30;;;23.70;66.40;;;;;;5031506;28;20106;-62
2022/07/13 11:15:47;;;;;;;3.47;3.17;;;23.70;66.10;;;;;;5029947;28;20049;-61
2022/07/13 11:18:23;;;;;;;6.63;3.13;;;23.70;66.20;;;;;;5029624;28;20119;-61
2022/07/13 11:20:59;;;;;;;5.10;3.30;;;23.70;66.00;;;;;;5032628;28;20072;-61
2022/07/13 11:26:54;;;;;;;3.55;3.25;;;23.70;65.80;;;;;;5028977;28;20460;-61
2022/07/13 11:29:48;;;;;;;4.72;3.00;;;23.70;65.70;;;;;;5028513;28;20042;-59
2022/07/13 11:32:13;;;;;;;7.47;3.28;;;23.70;65.90;;;;;;5029190;28;20103;-61
2022/07/13 11:34:42;;;;;;;4.47;3.05;;;23.70;65.70;;;;;;5009220;28;20481;-62
2022/07/13 11:37:08;;;;;;;6.20;3.50;;;23.70;65.50;;;;;;5025080;28;20041;-61
2022/07/13 11:39:35;;;;;;;5.07;3.30;;;23.70;65.60;;;;;;5030362;28;20045;-61
2022/07/13 11:42:02;;;;;;;4.40;3.58;;;23.70;65.50;;;;;;5029776;28;20069;-61
2022/07/13 11:44:30;;;;;;;6.85;3.35;;;23.70;65.70;;;;;;5026170;28;20083;-61
2022/07/13 11:46:58;;;;;;;4.10;3.08;;;23.70;65.60;;;;;;5010909;28;20052;-61
2022/07/13 11:49:25;;;;;;;5.65;3.30;;;23.70;65.50;;;;;;5009017;28;20980;-61
2022/07/13 11:51:51;;;;;;;4.75;3.10;;;23.70;65.50;;;;;;5028024;28;20487;-62
2022/07/13 11:54:19;;;;;;;3.08;2.75;;;23.70;65.10;;;;;;5031332;28;20039;-62
2022/07/13 11:56:56;;;;;;;4.70;3.05;;;23.70;65.00;;;;;;5030255;28;20029;-62
2022/07/13 12:00:06;;;;;;;4.90;3.22;;;23.60;64.70;;;;;;5029128;28;20033;-61
2022/07/13 12:02:32;;;;;;;3.33;2.30;;;23.60;64.70;;;;;;4981543;28;20077;-62
2022/07/13 12:04:58;;;;;;;7.55;2.90;;;23.60;64.90;;;;;;5030922;28;20674;-61
2022/07/13 12:07:28;;;;;;;3.45;2.78;;;23.60;64.80;;;;;;5030108;28;20056;-60
2022/07/13 12:10:05;;;;;;;4.18;3.15;;;23.60;64.80;;;;;;5011275;28;20143;-61
2022/07/13 12:12:38;;;;;;;3.88;3.28;;;23.60;64.60;;;;;;5030832;28;20037;-61
2022/07/13 12:15:05;;;;;;;2.90;2.70;;;23.60;64.50;;;;;;5028242;28;20036;-60
2022/07/13 12:17:42;;;;;;;4.40;2.83;;;23.60;64.50;;;;;;5029487;28;20127;-61
2022/07/13 12:20:14;;;;;;;4.45;2.80;;;23.60;64.30;;;;;;5028782;28;20041;-61
2022/07/13 12:22:47;;;;;;;2.92;2.70;;;23.60;64.30;;;;;;5011367;28;20041;-61
2022/07/13 12:25:35;;;;;;;2.88;2.67;;;23.60;64.40;;;;;;5029788;28;20779;-61
2022/07/13 12:28:06;;;;;;;3.28;2.30;;;23.60;64.40;;;;;;5029742;28;20079;-61
2022/07/13 12:30:33;;;;;;;3.03;2.70;;;23.60;64.30;;;;;;5028500;28;20112;-61
2022/07/13 12:33:01;;;;;;;3.63;2.65;;;23.60;64.20;;;;;;5010111;28;20045;-61
2022/07/13 12:35:35;;;;;;;2.60;2.40;;;23.60;64.20;;;;;;5030156;28;20064;-60
2022/07/13 12:38:08;;;;;;;2.97;2.70;;;23.60;64.20;;;;;;5030246;28;20068;-60
2022/07/13 12:40:45;;;;;;;2.58;2.38;;;23.60;64.20;;;;;;5031378;28;20140;-61
2022/07/13 12:43:18;;;;;;;3.42;2.80;;;23.60;64.00;;;;;;5029453;28;20043;-60
2022/07/13 12:45:45;;;;;;;2.95;2.75;;;23.60;63.90;;;;;;5029206;28;20047;-61
2022/07/13 12:48:16;;;;;;;3.38;2.55;;;23.60;63.80;;;;;;5025523;28;20050;-60
2022/07/13 12:50:42;;;;;;;3.45;2.58;;;23.60;63.50;;;;;;5026218;28;20045;-61
2022/07/13 12:53:08;;;;;;;2.67;2.28;;;23.60;63.40;;;;;;5027607;28;20826;-61
2022/07/13 12:55:50;;;;;;;4.90;2.78;;;23.60;63.20;;;;;;5028192;28;20044;-60
2022/07/13 12:58:16;;;;;;;2.63;2.33;;;23.60;63.10;;;;;;5029940;28;20358;-61
2022/07/13 13:00:42;;;;;;;2.58;2.38;;;23.60;63.10;;;;;;5027338;28;20038;-61
2022/07/13 13:03:08;;;;;;;2.90;2.53;;;23.60;63.20;;;;;;5028932;28;20039;-61